Time;durP1;ratioP1;P1;durP2;ratioP2;P2;SDS_P1;SDS_P2;PMS_P1;PMS_P2;Temp;Humidity;BMP_temperature;BMP_pressure;BME280_temperature;BME280_humidity;BME280_pressure;Samples;Min_cycle;Max_cycle;Signal;HPM_P1;HPM_P2
2022/11/12 00:01:12;;;;;;;6.40;5.27;;;12.00;81.90;;;-142.21;100.00;112049.66;5012528;28;21004;-73
2022/11/12 00:03:39;;;;;;;6.20;5.17;;;11.90;81.70;;;-142.21;100.00;112049.66;5020368;28;20445;-72
2022/11/12 00:06:07;;;;;;;5.50;5.00;;;12.00;81.70;;;-142.21;100.00;112049.66;5012378;28;20447;-72
2022/11/12 00:08:34;;;;;;;5.57;4.90;;;12.00;81.60;;;-142.21;100.00;112049.66;5012620;28;20524;-72
2022/11/12 00:11:01;;;;;;;5.80;5.30;;;12.00;81.50;;;-142.21;100.00;112049.66;5002608;28;20582;-72
2022/11/12 00:13:28;;;;;;;5.67;5.17;;;12.00;81.60;;;-142.21;100.00;112049.66;5015708;28;20494;-73
2022/11/12 00:15:56;;;;;;;6.00;5.40;;;12.00;81.60;;;-142.21;100.00;112049.66;5011742;28;20453;-72
2022/11/12 00:18:23;;;;;;;5.77;5.17;;;11.90;81.70;;;-142.21;100.00;112049.66;5012501;28;20456;-73
2022/11/12 00:20:51;;;;;;;6.20;5.10;;;11.90;82.00;;;-142.21;100.00;112049.66;5011693;28;20442;-72
2022/11/12 00:23:18;;;;;;;5.27;4.77;;;11.90;81.90;;;-142.21;100.00;112049.66;5011973;28;20453;-72
2022/11/12 00:25:45;;;;;;;5.83;5.33;;;11.90;81.70;;;-142.21;100.00;112049.66;5011485;28;20454;-70
2022/11/12 00:28:12;;;;;;;5.23;4.73;;;11.90;81.80;;;-142.21;100.00;112049.66;5012123;28;20446;-72
2022/11/12 00:30:41;;;;;;;5.13;4.63;;;11.90;81.80;;;-142.21;100.00;112049.66;5012421;28;20492;-72
2022/11/12 00:33:09;;;;;;;5.50;4.27;;;11.90;81.90;;;-142.21;100.00;112049.66;5012025;28;20458;-73
2022/11/12 00:35:36;;;;;;;5.40;4.90;;;11.90;81.70;;;-142.21;100.00;112049.66;5011585;28;20446;-73
2022/11/12 00:38:03;;;;;;;7.07;4.77;;;11.90;81.70;;;-142.21;100.00;112049.66;5004856;28;20454;-73
2022/11/12 00:40:31;;;;;;;5.83;4.77;;;11.90;81.70;;;-142.21;100.00;112049.66;4993362;28;20438;-73
2022/11/12 00:42:58;;;;;;;5.80;5.20;;;11.90;81.70;;;-142.21;100.00;112049.66;4993041;28;20475;-72
2022/11/12 00:45:25;;;;;;;5.43;4.93;;;11.90;81.70;;;-142.21;100.00;112049.66;4993608;28;20452;-72
2022/11/12 00:47:56;;;;;;;5.50;4.83;;;11.90;81.50;;;-142.21;100.00;112049.66;5010214;28;20532;-72
2022/11/12 00:50:25;;;;;;;5.37;4.73;;;11.90;81.70;;;-142.21;100.00;112049.66;5009674;28;20955;-72
2022/11/12 00:52:53;;;;;;;5.20;4.70;;;11.80;81.90;;;-142.21;100.00;112049.66;5011071;28;20454;-72
2022/11/12 00:55:20;;;;;;;5.53;4.93;;;11.90;82.00;;;-142.21;100.00;112049.66;4992327;28;20442;-73
2022/11/12 00:57:47;;;;;;;5.77;5.23;;;11.90;82.00;;;-142.21;100.00;112049.66;5009687;28;20442;-72
2022/11/12 01:00:18;;;;;;;5.70;4.80;;;11.80;81.90;;;-142.21;100.00;112049.66;4994184;28;20449;-72
2022/11/12 01:02:45;;;;;;;5.37;4.87;;;11.90;82.00;;;-142.21;100.00;112049.66;5008298;28;20488;-73
2022/11/12 01:05:12;;;;;;;5.43;4.93;;;11.90;82.00;;;-142.21;100.00;112049.66;5009062;28;20472;-73
2022/11/12 01:07:41;;;;;;;6.03;5.20;;;11.90;82.00;;;-142.21;100.00;112049.66;4994536;28;20542;-72
2022/11/12 01:10:10;;;;;;;5.50;5.00;;;11.90;82.00;;;-142.21;100.00;112049.66;5009984;28;21001;-72
2022/11/12 01:12:38;;;;;;;5.43;4.93;;;11.90;82.10;;;-142.21;100.00;112049.66;4996232;28;20524;-73
2022/11/12 01:15:07;;;;;;;5.30;4.80;;;11.90;82.20;;;-142.21;100.00;112049.66;5010782;28;20533;-72
2022/11/12 01:17:34;;;;;;;5.87;5.30;;;11.90;82.10;;;-142.21;100.00;112049.66;5002426;28;20968;-73
2022/11/12 01:20:02;;;;;;;6.30;5.17;;;11.90;82.00;;;-142.21;100.00;112049.66;5008086;28;20879;-72
2022/11/12 01:22:29;;;;;;;5.70;5.10;;;11.90;82.10;;;-142.21;100.00;112049.66;5009349;28;20450;-73
2022/11/12 01:24:58;;;;;;;5.63;5.13;;;11.80;82.20;;;-142.21;100.00;112049.66;5010743;28;20456;-73
2022/11/12 01:27:25;;;;;;;6.27;5.67;;;11.90;82.20;;;-142.21;100.00;112049.66;4992679;28;20502;-73
2022/11/12 01:29:52;;;;;;;6.93;5.50;;;11.90;82.20;;;-142.21;100.00;112049.66;5004556;28;20447;-73
2022/11/12 01:32:19;;;;;;;6.10;5.50;;;11.90;82.20;;;-142.21;100.00;112049.66;5009239;28;20496;-72
2022/11/12 01:34:46;;;;;;;5.47;4.97;;;11.90;82.30;;;-142.21;100.00;112049.66;5008919;28;20529;-72
2022/11/12 01:37:13;;;;;;;6.97;5.47;;;11.80;82.40;;;-142.21;100.00;112049.66;4994599;28;20455;-72
2022/11/12 01:39:40;;;;;;;6.47;5.83;;;11.80;82.30;;;-142.21;100.00;112049.66;5011063;28;20549;-73
2022/11/12 01:42:09;;;;;;;6.60;5.07;;;11.80;82.30;;;-142.21;100.00;112049.66;5010406;28;20446;-72
2022/11/12 01:44:44;;;;;;;6.53;5.93;;;11.80;82.60;;;-142.21;100.00;112049.66;5008119;28;20449;-72
2022/11/12 01:47:20;;;;;;;6.00;5.50;;;11.80;82.90;;;-142.21;100.00;112049.66;4998827;28;20944;-72
2022/11/12 01:49:53;;;;;;;6.20;5.43;;;11.70;83.20;;;-142.21;100.00;112049.66;5002183;28;20472;-72
2022/11/12 01:52:28;;;;;;;6.27;5.10;;;11.80;82.80;;;-142.21;100.00;112049.66;4994696;28;20470;-73
2022/11/12 01:55:02;;;;;;;6.57;4.77;;;11.80;82.80;;;-142.21;100.00;112049.66;5009060;28;21177;-73
2022/11/12 01:57:39;;;;;;;6.40;5.30;;;11.80;82.70;;;-142.21;100.00;112049.66;5011974;28;20441;-73
2022/11/12 02:00:11;;;;;;;5.73;5.13;;;11.80;82.80;;;-142.21;100.00;112049.66;4996968;28;20446;-72
2022/11/12 02:02:40;;;;;;;5.43;4.90;;;11.80;82.70;;;-142.21;100.00;112049.66;5007771;28;20441;-72
2022/11/12 02:05:11;;;;;;;5.93;5.30;;;11.80;82.70;;;-142.21;100.00;112049.66;4997214;28;20471;-72
2022/11/12 02:07:42;;;;;;;5.07;4.57;;;11.80;82.90;;;-142.21;100.00;112049.66;4991364;28;21039;-72
2022/11/12 02:10:10;;;;;;;5.53;5.03;;;11.80;82.50;;;-142.21;100.00;112049.66;5008948;28;20485;-72
2022/11/12 02:15:26;;;;;;;6.60;5.33;;;11.80;82.60;;;-142.21;100.00;112049.66;5012912;28;20500;-72
2022/11/12 02:17:53;;;;;;;5.20;4.70;;;11.80;82.60;;;-142.21;100.00;112049.66;5003638;28;20488;-72
2022/11/12 02:20:21;;;;;;;5.70;5.20;;;11.80;82.40;;;-142.21;100.00;112049.66;5010700;28;20544;-72
2022/11/12 02:22:50;;;;;;;5.97;5.30;;;11.80;82.40;;;-142.21;100.00;112049.66;5010875;28;20526;-73
2022/11/12 02:25:22;;;;;;;5.33;4.83;;;11.80;82.30;;;-142.21;100.00;112049.66;4999914;28;20485;-72
2022/11/12 02:27:53;;;;;;;5.60;5.00;;;11.80;82.40;;;-142.21;100.00;112049.66;5007968;28;20438;-73
2022/11/12 02:30:32;;;;;;;6.10;5.30;;;11.80;82.40;;;-142.21;100.00;112049.66;5010272;28;20446;-72
2022/11/12 02:32:59;;;;;;;5.27;4.77;;;11.80;82.40;;;-142.21;100.00;112049.66;5010804;28;20525;-73
2022/11/12 02:35:26;;;;;;;6.00;5.20;;;11.80;82.20;;;-142.21;100.00;112049.66;4998540;28;20476;-72
2022/11/12 02:37:55;;;;;;;5.43;4.93;;;11.80;82.90;;;-142.21;100.00;112049.66;5010823;28;20959;-72
2022/11/12 02:40:23;;;;;;;5.23;4.73;;;11.80;82.20;;;-142.21;100.00;112049.66;5002960;28;20477;-73
2022/11/12 02:42:50;;;;;;;5.30;4.80;;;11.80;82.10;;;-142.21;100.00;112049.66;5013817;28;20446;-72
2022/11/12 02:45:18;;;;;;;5.57;5.07;;;11.80;82.20;;;-142.21;100.00;112049.66;5012277;28;20454;-73
2022/11/12 02:47:45;;;;;;;6.53;4.97;;;11.80;82.30;;;-142.21;100.00;112049.66;5001592;28;20794;-72
2022/11/12 02:50:13;;;;;;;5.43;4.93;;;11.80;82.30;;;-142.21;100.00;112049.66;5012545;28;20454;-72
2022/11/12 02:52:40;;;;;;;5.90;5.30;;;11.70;82.10;;;-142.21;100.00;112049.66;5011666;28;20490;-73
2022/11/12 02:55:11;;;;;;;5.77;5.13;;;11.80;82.20;;;-142.21;100.00;112049.66;5000828;28;20453;-73
2022/11/12 02:57:39;;;;;;;5.73;5.20;;;11.80;82.20;;;-142.21;100.00;112049.66;5003115;28;20880;-73
2022/11/12 03:00:11;;;;;;;6.40;5.13;;;11.80;82.20;;;-142.21;100.00;112049.66;5008536;28;21005;-72
2022/11/12 03:02:41;;;;;;;5.50;5.00;;;11.80;82.10;;;-142.21;100.00;112049.66;5006638;28;20438;-73
2022/11/12 03:05:10;;;;;;;5.43;4.93;;;11.80;82.10;;;-142.21;100.00;112049.66;5012428;28;20474;-72
2022/11/12 03:07:37;;;;;;;5.93;5.33;;;11.80;82.20;;;-142.21;100.00;112049.66;5013538;28;20458;-72
2022/11/12 03:10:08;;;;;;;5.73;5.13;;;11.80;82.20;;;-142.21;100.00;112049.66;5012940;28;20536;-72
2022/11/12 03:12:35;;;;;;;5.50;5.00;;;11.70;82.20;;;-142.21;100.00;112049.66;5001878;28;20550;-73
2022/11/12 03:15:02;;;;;;;5.50;5.00;;;11.70;82.30;;;-142.21;100.00;112049.66;4993493;28;20833;-72
2022/11/12 03:17:29;;;;;;;6.03;5.43;;;11.80;82.20;;;-142.21;100.00;112049.66;4997273;28;20533;-73
2022/11/12 03:19:56;;;;;;;5.43;4.60;;;11.70;82.10;;;-142.21;100.00;112049.66;5005795;28;20455;-72
2022/11/12 03:22:24;;;;;;;6.20;5.33;;;11.80;82.30;;;-142.21;100.00;112049.66;5003036;28;20533;-72
2022/11/12 03:24:51;;;;;;;5.30;4.80;;;11.70;82.10;;;-142.21;100.00;112049.66;5005566;28;20509;-72
2022/11/12 03:27:19;;;;;;;5.50;5.00;;;11.80;82.10;;;-142.21;100.00;112049.66;4996363;28;21018;-72
2022/11/12 03:29:47;;;;;;;5.63;5.07;;;11.70;82.00;;;-142.21;100.00;112049.66;5013234;28;20446;-72
2022/11/12 03:32:14;;;;;;;5.17;4.67;;;11.70;82.10;;;-142.21;100.00;112049.66;5001177;28;20843;-72
2022/11/12 03:34:41;;;;;;;5.47;4.97;;;11.80;82.20;;;-142.21;100.00;112049.66;5013187;28;20449;-72
2022/11/12 03:37:09;;;;;;;5.40;4.90;;;11.80;82.10;;;-142.21;100.00;112049.66;5011855;28;20446;-72
2022/11/12 03:39:36;;;;;;;5.73;4.90;;;11.80;82.70;;;-142.21;100.00;112049.66;4993409;28;20534;-73
2022/11/12 03:42:04;;;;;;;5.03;4.53;;;11.70;81.70;;;-142.21;100.00;112049.66;4992939;28;20962;-73
2022/11/12 03:44:33;;;;;;;4.50;4.03;;;11.70;81.80;;;-142.21;100.00;112049.66;4975940;28;20451;-72
2022/11/12 03:47:00;;;;;;;4.87;4.37;;;11.70;81.90;;;-142.21;100.00;112049.66;4992752;28;20808;-72
2022/11/12 03:49:27;;;;;;;5.00;4.60;;;11.70;81.70;;;-142.21;100.00;112049.66;5003919;28;20546;-72
2022/11/12 03:51:54;;;;;;;5.67;4.50;;;11.80;81.90;;;-142.21;100.00;112049.66;4993036;28;20482;-72
2022/11/12 03:54:21;;;;;;;5.10;4.67;;;11.80;81.80;;;-142.21;100.00;112049.66;4985838;28;20451;-72
2022/11/12 03:56:48;;;;;;;5.47;4.50;;;11.70;81.60;;;-142.21;100.00;112049.66;4993254;28;20856;-73
2022/11/12 03:59:15;;;;;;;5.30;4.80;;;11.70;81.70;;;-142.21;100.00;112049.66;5001955;28;20444;-73
2022/11/12 04:01:44;;;;;;;4.50;4.10;;;11.70;81.70;;;-142.21;100.00;112049.66;4993091;28;20537;-72
2022/11/12 04:04:12;;;;;;;4.83;4.43;;;11.80;81.60;;;-142.21;100.00;112049.66;4991873;28;21014;-72
2022/11/12 04:09:23;;;;;;;5.57;5.03;;;11.80;81.90;;;-142.21;100.00;112049.66;4993205;28;20446;-73
2022/11/12 04:11:50;;;;;;;5.90;5.20;;;11.70;81.50;;;-142.21;100.00;112049.66;5008477;28;20500;-73
2022/11/12 04:14:16;;;;;;;5.00;4.50;;;11.70;81.60;;;-142.21;100.00;112049.66;4993029;28;20487;-73
2022/11/12 04:22:15;;;;;;;6.03;5.07;;;11.70;81.70;;;-142.21;100.00;112049.66;4992236;28;20423;-72
2022/11/12 04:27:36;;;;;;;5.67;5.03;;;11.70;81.70;;;-142.21;100.00;112049.66;4986099;28;20533;-72
2022/11/12 04:30:18;;;;;;;5.27;4.77;;;11.70;81.50;;;-142.21;100.00;112049.66;5009291;28;20533;-72
2022/11/12 04:32:51;;;;;;;5.30;4.63;;;11.60;81.60;;;-142.21;100.00;112049.66;5010394;28;21060;-71
2022/11/12 04:35:19;;;;;;;5.53;4.93;;;11.70;81.70;;;-142.21;100.00;112049.66;5004980;28;20482;-71
2022/11/12 04:37:47;;;;;;;5.90;4.97;;;11.60;81.50;;;-142.21;100.00;112049.66;5008920;28;20823;-71
2022/11/12 04:45:51;;;;;;;6.37;5.00;;;11.70;81.20;;;-142.21;100.00;112049.66;5004641;28;20437;-72
2022/11/12 04:48:20;;;;;;;5.40;4.90;;;11.60;80.80;;;-142.21;100.00;112049.66;4999759;28;20446;-72
2022/11/12 04:50:53;;;;;;;4.97;4.47;;;11.60;80.80;;;-142.21;100.00;112049.66;5010435;28;20454;-71
2022/11/12 04:53:21;;;;;;;5.23;4.73;;;11.60;80.80;;;-142.21;100.00;112049.66;5011696;28;20470;-72
2022/11/12 04:55:50;;;;;;;5.17;4.67;;;11.50;80.70;;;-142.21;100.00;112049.66;4997767;28;20442;-72
2022/11/12 04:58:18;;;;;;;5.30;4.80;;;11.50;80.70;;;-142.21;100.00;112049.66;4992118;28;20480;-71
2022/11/12 05:00:45;;;;;;;5.43;4.90;;;11.50;80.70;;;-142.21;100.00;112049.66;5006113;28;20451;-72
2022/11/12 05:03:12;;;;;;;5.50;4.73;;;11.50;80.80;;;-142.21;100.00;112049.66;5000131;28;20450;-72
2022/11/12 05:05:41;;;;;;;6.17;5.07;;;11.60;81.00;;;-142.21;100.00;112049.66;5007482;28;20806;-73
2022/11/12 05:08:08;;;;;;;5.30;4.80;;;11.60;80.90;;;-142.21;100.00;112049.66;5008503;28;20438;-72
2022/11/12 05:10:35;;;;;;;5.47;4.97;;;11.60;80.80;;;-142.21;100.00;112049.66;4998456;28;20478;-72
2022/11/12 05:13:02;;;;;;;6.00;5.40;;;11.50;80.50;;;-142.21;100.00;112049.66;4989353;28;20491;-72
2022/11/12 05:15:29;;;;;;;5.77;4.73;;;11.50;80.70;;;-142.21;100.00;112049.66;4987166;28;20815;-72
2022/11/12 05:17:56;;;;;;;5.17;4.67;;;11.50;80.70;;;-142.21;100.00;112049.66;4994484;28;20443;-72
2022/11/12 05:20:23;;;;;;;5.80;5.03;;;11.50;80.70;;;-142.21;100.00;112049.66;4982203;28;20859;-71
2022/11/12 05:22:52;;;;;;;5.80;5.30;;;11.50;80.70;;;-142.21;100.00;112049.66;4980176;28;20499;-72
2022/11/12 05:25:19;;;;;;;5.70;5.10;;;11.50;80.70;;;-142.21;100.00;112049.66;4984811;28;20469;-73
2022/11/12 05:27:46;;;;;;;5.97;5.30;;;11.50;80.90;;;-142.21;100.00;112049.66;4996367;28;20457;-73
2022/11/12 05:30:14;;;;;;;5.23;4.73;;;11.50;80.70;;;-142.21;100.00;112049.66;4976136;28;20454;-72
2022/11/12 05:32:41;;;;;;;5.10;4.60;;;11.50;80.70;;;-142.21;100.00;112049.66;4989924;28;20487;-72
2022/11/12 05:35:09;;;;;;;5.87;5.27;;;11.50;80.80;;;-142.21;100.00;112049.66;4986443;28;20451;-72
2022/11/12 05:37:38;;;;;;;5.70;5.10;;;11.50;80.70;;;-142.21;100.00;112049.66;4989742;28;20458;-71
2022/11/12 05:40:08;;;;;;;5.83;5.23;;;11.40;81.00;;;-142.21;100.00;112049.66;5002509;28;20456;-72
2022/11/12 05:42:35;;;;;;;6.33;5.50;;;11.40;81.20;;;-142.21;100.00;112049.66;4996442;28;20442;-72
2022/11/12 05:45:02;;;;;;;5.63;5.10;;;11.50;81.00;;;-142.21;100.00;112049.66;4988395;28;20466;-72
2022/11/12 05:47:30;;;;;;;6.00;5.40;;;11.50;80.90;;;-142.21;100.00;112049.66;4993777;28;20559;-71
2022/11/12 05:49:57;;;;;;;6.13;5.17;;;11.50;81.10;;;-142.21;100.00;112049.66;4993843;28;20735;-72
2022/11/12 05:52:24;;;;;;;5.90;5.30;;;11.50;80.90;;;-142.21;100.00;112049.66;5001508;28;20492;-73
2022/11/12 05:54:51;;;;;;;6.87;5.93;;;11.50;80.90;;;-142.21;100.00;112049.66;5015666;28;21197;-72
2022/11/12 05:57:19;;;;;;;6.43;5.77;;;11.50;80.90;;;-142.21;100.00;112049.66;5001314;28;20442;-72
2022/11/12 05:59:46;;;;;;;5.90;5.40;;;11.50;80.80;;;-142.21;100.00;112049.66;4995123;28;20454;-72
2022/11/12 06:02:13;;;;;;;6.00;5.40;;;11.50;81.60;;;-142.21;100.00;112049.66;4993504;28;20823;-72
2022/11/12 06:04:40;;;;;;;7.03;6.17;;;11.50;80.90;;;-142.21;100.00;112049.66;4993912;28;20474;-72
2022/11/12 06:07:07;;;;;;;5.87;5.37;;;11.50;80.70;;;-142.21;100.00;112049.66;5004616;28;20791;-72
2022/11/12 06:09:34;;;;;;;5.60;5.10;;;11.50;80.80;;;-142.21;100.00;112049.66;5013049;28;20461;-73
2022/11/12 06:12:05;;;;;;;5.30;4.80;;;11.50;81.00;;;-142.21;100.00;112049.66;4997734;28;20498;-72
2022/11/12 06:14:33;;;;;;;7.07;5.67;;;11.50;81.10;;;-142.21;100.00;112049.66;5007616;28;20454;-73
2022/11/12 06:17:00;;;;;;;5.90;5.30;;;11.50;80.90;;;-142.21;100.00;112049.66;5006546;28;20804;-71
2022/11/12 06:19:27;;;;;;;5.80;5.17;;;11.50;81.00;;;-142.21;100.00;112049.66;5013386;28;20458;-72
2022/11/12 06:21:54;;;;;;;6.53;5.83;;;11.50;80.80;;;-142.21;100.00;112049.66;4997799;28;20443;-72
2022/11/12 06:24:21;;;;;;;5.97;5.37;;;11.50;80.70;;;-142.21;100.00;112049.66;4995536;28;20448;-72
2022/11/12 06:26:49;;;;;;;5.63;5.03;;;11.50;80.90;;;-142.21;100.00;112049.66;5009658;28;20481;-71
2022/11/12 06:29:16;;;;;;;5.30;4.80;;;11.50;81.00;;;-142.21;100.00;112049.66;4998068;28;20457;-72
2022/11/12 06:31:44;;;;;;;5.43;4.87;;;11.50;80.70;;;-142.21;100.00;112049.66;5001423;28;20457;-72
2022/11/12 06:34:15;;;;;;;5.30;4.80;;;11.50;80.80;;;-142.21;100.00;112049.66;5006382;28;21010;-71
2022/11/12 06:36:43;;;;;;;5.27;4.77;;;11.50;80.90;;;-142.21;100.00;112049.66;5009281;28;20434;-75
2022/11/12 06:39:11;;;;;;;5.63;5.13;;;11.50;81.30;;;-142.21;100.00;112049.66;4999663;28;20489;-76
2022/11/12 06:41:38;;;;;;;5.73;5.23;;;11.50;81.30;;;-142.21;100.00;112049.66;5005888;28;20442;-75
2022/11/12 06:44:06;;;;;;;5.23;4.70;;;11.40;81.10;;;-142.21;100.00;112049.66;5011607;28;20457;-76
2022/11/12 06:46:33;;;;;;;5.40;4.90;;;11.50;81.10;;;-142.21;100.00;112049.66;5013128;28;20525;-74
2022/11/12 06:49:02;;;;;;;5.57;5.07;;;11.50;81.20;;;-142.21;100.00;112049.66;5003970;28;20839;-76
2022/11/12 06:51:29;;;;;;;6.23;4.60;;;11.50;81.10;;;-142.21;100.00;112049.66;5002649;28;20542;-76
2022/11/12 06:53:56;;;;;;;8.03;4.97;;;11.50;81.00;;;-142.21;100.00;112049.66;5003419;28;20569;-76
2022/11/12 06:56:23;;;;;;;4.60;4.20;;;11.50;80.80;;;-142.21;100.00;112049.66;5004400;28;20469;-74
2022/11/12 06:58:50;;;;;;;4.67;4.27;;;11.40;80.90;;;-142.21;100.00;112049.66;5012663;28;20818;-75
2022/11/12 07:01:18;;;;;;;4.40;4.00;;;11.50;81.00;;;-142.21;100.00;112049.66;5008226;28;20486;-76
2022/11/12 07:03:45;;;;;;;4.30;3.90;;;11.50;80.70;;;-142.21;100.00;112049.66;5011483;28;20442;-74
2022/11/12 07:06:19;;;;;;;4.70;4.23;;;11.40;80.40;;;-142.21;100.00;112049.66;5010708;28;20541;-75
2022/11/12 07:08:47;;;;;;;4.77;4.27;;;11.40;80.40;;;-142.21;100.00;112049.66;5007118;28;21031;-76
2022/11/12 07:11:15;;;;;;;5.70;4.47;;;11.40;80.20;;;-142.21;100.00;112049.66;5004913;28;20485;-74
2022/11/12 07:13:44;;;;;;;5.73;5.00;;;11.30;80.00;;;-142.21;100.00;112049.66;5009976;28;20490;-73
2022/11/12 07:16:12;;;;;;;5.03;4.53;;;11.20;79.90;;;-142.21;100.00;112049.66;5011329;28;20454;-73
2022/11/12 07:18:42;;;;;;;5.43;4.50;;;11.10;80.40;;;-142.21;100.00;112049.66;5008097;28;20548;-73
2022/11/12 07:21:15;;;;;;;5.43;4.93;;;11.10;80.80;;;-142.21;100.00;112049.66;4996078;28;20819;-73
2022/11/12 07:23:42;;;;;;;6.20;5.60;;;11.20;80.80;;;-142.21;100.00;112049.66;4996848;28;20544;-73
2022/11/12 07:26:26;;;;;;;5.57;5.00;;;11.20;81.00;;;-142.21;100.00;112049.66;5011088;28;20438;-73
2022/11/12 07:28:55;;;;;;;5.97;5.30;;;11.20;81.20;;;-142.21;100.00;112049.66;5012994;28;20474;-72
2022/11/12 07:31:24;;;;;;;5.80;5.27;;;11.20;81.10;;;-142.21;100.00;112049.66;5005724;28;20478;-72
2022/11/12 07:33:52;;;;;;;6.30;5.70;;;11.30;80.90;;;-142.21;100.00;112049.66;4988747;28;20482;-72
2022/11/12 07:36:22;;;;;;;5.87;5.27;;;11.30;80.50;;;-142.21;100.00;112049.66;5011852;28;20884;-72
2022/11/12 07:38:53;;;;;;;6.00;5.43;;;11.30;80.50;;;-142.21;100.00;112049.66;5013655;28;20453;-73
2022/11/12 07:41:22;;;;;;;6.30;5.70;;;11.30;80.50;;;-142.21;100.00;112049.66;5006402;28;20528;-73
2022/11/12 07:43:52;;;;;;;5.60;5.10;;;11.20;80.40;;;-142.21;100.00;112049.66;5013093;28;20537;-73
2022/11/12 07:46:22;;;;;;;6.10;5.60;;;11.20;80.40;;;-142.21;100.00;112049.66;4999815;28;20497;-73
2022/11/12 07:48:50;;;;;;;5.93;5.33;;;11.30;80.30;;;-142.21;100.00;112049.66;4995911;28;20506;-72
2022/11/12 07:51:22;;;;;;;6.70;5.87;;;11.30;80.30;;;-142.21;100.00;112049.66;4993637;28;20451;-72
2022/11/12 07:53:52;;;;;;;5.60;5.10;;;11.30;80.10;;;-142.21;100.00;112049.66;4999216;28;20897;-72
2022/11/12 07:56:21;;;;;;;5.47;4.97;;;11.30;79.90;;;-142.21;100.00;112049.66;4996971;28;20482;-72
2022/11/12 07:58:49;;;;;;;5.77;5.03;;;11.30;80.00;;;-142.21;100.00;112049.66;5002571;28;20489;-73
2022/11/12 08:01:28;;;;;;;5.77;5.17;;;11.30;80.00;;;-142.21;100.00;112049.66;5010874;28;20454;-72
2022/11/12 08:03:55;;;;;;;5.90;5.17;;;11.30;80.00;;;-142.21;100.00;112049.66;5006555;28;20446;-72
2022/11/12 08:06:24;;;;;;;9.97;8.67;;;11.30;79.50;;;-142.21;100.00;112049.66;5006322;28;20458;-72
2022/11/12 08:08:52;;;;;;;7.40;6.60;;;11.30;79.60;;;-142.21;100.00;112049.66;5012327;28;20460;-72
2022/11/12 08:11:20;;;;;;;7.50;6.70;;;11.30;79.70;;;-142.21;100.00;112049.66;5009543;28;20569;-72
2022/11/12 08:13:47;;;;;;;7.10;6.40;;;11.30;79.40;;;-142.21;100.00;112049.66;5002913;28;20592;-72
2022/11/12 08:16:16;;;;;;;6.53;5.83;;;11.20;79.20;;;-142.21;100.00;112049.66;5010076;28;20553;-72
2022/11/12 08:18:44;;;;;;;6.20;5.60;;;11.20;79.50;;;-142.21;100.00;112049.66;4993481;28;20458;-72
2022/11/12 08:21:16;;;;;;;7.80;6.13;;;11.20;79.30;;;-142.21;100.00;112049.66;5003568;28;20450;-73
2022/11/12 08:23:45;;;;;;;6.07;5.57;;;11.20;79.40;;;-142.21;100.00;112049.66;5008637;28;20439;-72
2022/11/12 08:26:17;;;;;;;6.83;6.13;;;11.20;78.80;;;-142.21;100.00;112049.66;5011182;28;20526;-73
2022/11/12 08:28:45;;;;;;;7.00;6.23;;;11.20;78.90;;;-142.21;100.00;112049.66;4996487;28;20534;-73
2022/11/12 08:31:15;;;;;;;6.57;5.40;;;11.10;79.00;;;-142.21;100.00;112049.66;5006611;28;20458;-73
2022/11/12 08:33:43;;;;;;;5.80;5.20;;;11.20;79.20;;;-142.21;100.00;112049.66;5003568;28;20564;-73
2022/11/12 08:36:13;;;;;;;5.90;5.40;;;11.20;78.60;;;-142.21;100.00;112049.66;5001918;28;20451;-73
2022/11/12 08:38:41;;;;;;;5.63;5.13;;;11.10;78.20;;;-142.21;100.00;112049.66;5006291;28;20572;-72
2022/11/12 08:41:12;;;;;;;6.23;5.50;;;11.20;78.50;;;-142.21;100.00;112049.66;5010020;28;20536;-73
2022/11/12 08:43:41;;;;;;;6.03;5.47;;;11.20;78.00;;;-142.21;100.00;112049.66;4980016;28;20529;-73
2022/11/12 08:46:08;;;;;;;6.20;5.60;;;11.20;78.20;;;-142.21;100.00;112049.66;5010330;28;20449;-73
2022/11/12 08:48:38;;;;;;;6.47;5.87;;;11.20;78.50;;;-142.21;100.00;112049.66;5010719;28;20481;-73
2022/11/12 08:51:07;;;;;;;6.17;5.20;;;11.20;78.30;;;-142.21;100.00;112049.66;4994550;28;20441;-72
2022/11/12 08:53:34;;;;;;;6.30;5.70;;;11.10;78.60;;;-142.21;100.00;112049.66;4975788;28;20557;-72
2022/11/12 08:56:03;;;;;;;6.80;6.20;;;11.10;78.70;;;-142.21;100.00;112049.66;5011239;28;20448;-72
2022/11/12 08:58:31;;;;;;;7.27;6.57;;;11.10;78.60;;;-142.21;100.00;112049.66;5002209;28;20526;-72
2022/11/12 09:01:05;;;;;;;8.07;6.57;;;11.10;78.60;;;-142.21;100.00;112049.66;5002839;28;20446;-72
2022/11/12 09:03:32;;;;;;;7.13;6.43;;;11.10;78.80;;;-142.21;100.00;112049.66;5009242;28;20460;-72
2022/11/12 09:06:03;;;;;;;6.40;5.80;;;11.20;79.00;;;-142.21;100.00;112049.66;5010988;28;20493;-71
2022/11/12 09:08:34;;;;;;;7.47;6.43;;;11.20;78.80;;;-142.21;100.00;112049.66;5004707;28;20811;-72
2022/11/12 09:11:01;;;;;;;6.47;5.87;;;11.30;78.80;;;-142.21;100.00;112049.66;4995991;28;20512;-73
2022/11/12 09:13:31;;;;;;;7.03;6.33;;;11.30;78.80;;;-142.21;100.00;112049.66;4954451;28;20486;-73
2022/11/12 09:16:06;;;;;;;7.73;6.13;;;11.30;78.80;;;-142.21;100.00;112049.66;5001623;28;20443;-72
2022/11/12 09:18:34;;;;;;;7.13;6.50;;;11.30;79.30;;;-142.21;100.00;112049.66;5006776;28;21005;-73
2022/11/12 09:21:05;;;;;;;7.43;6.67;;;11.40;78.90;;;-142.21;100.00;112049.66;4998013;28;20447;-72
2022/11/12 09:23:34;;;;;;;6.57;5.90;;;11.40;78.60;;;-142.21;100.00;112049.66;4996363;28;20521;-73
2022/11/12 09:26:01;;;;;;;7.23;6.53;;;11.50;78.90;;;-142.21;100.00;112049.66;5004634;28;20450;-72
2022/11/12 09:28:29;;;;;;;7.00;6.30;;;11.50;78.90;;;-142.21;100.00;112049.66;5006514;28;20617;-73
2022/11/12 09:30:57;;;;;;;6.97;6.27;;;11.50;78.90;;;-142.21;100.00;112049.66;5010541;28;20534;-73
2022/11/12 09:33:29;;;;;;;7.70;6.90;;;11.50;79.00;;;-142.21;100.00;112049.66;5006121;28;20569;-72
2022/11/12 09:36:00;;;;;;;8.17;6.40;;;11.50;79.20;;;-142.21;100.00;112049.66;5005716;28;20533;-72
2022/11/12 09:38:28;;;;;;;7.70;6.90;;;11.50;78.90;;;-142.21;100.00;112049.66;4996356;28;20517;-73
2022/11/12 09:41:17;;;;;;;6.80;6.10;;;11.60;79.00;;;-142.21;100.00;112049.66;4995551;28;20485;-72
2022/11/12 09:43:51;;;;;;;7.80;7.10;;;11.60;79.10;;;-142.21;100.00;112049.66;5011316;28;20439;-72
2022/11/12 09:46:43;;;;;;;8.23;7.03;;;11.60;79.10;;;-142.21;100.00;112049.66;4999060;28;20434;-73
2022/11/12 09:49:19;;;;;;;7.80;7.10;;;11.60;78.90;;;-142.21;100.00;112049.66;5007335;28;20513;-73
2022/11/12 09:51:53;;;;;;;8.23;7.43;;;11.60;78.90;;;-142.21;100.00;112049.66;5008003;28;20437;-72
2022/11/12 09:54:25;;;;;;;7.67;6.97;;;11.70;79.20;;;-142.21;100.00;112049.66;4991602;28;20530;-72
2022/11/12 09:56:54;;;;;;;7.77;7.07;;;11.70;78.60;;;-142.21;100.00;112049.66;5007600;28;20450;-72
2022/11/12 09:59:26;;;;;;;8.63;7.17;;;11.70;78.80;;;-142.21;100.00;112049.66;5009553;28;20504;-72
2022/11/12 10:02:04;;;;;;;7.67;7.00;;;11.70;78.60;;;-142.21;100.00;112049.66;5007035;28;20991;-73
2022/11/12 10:04:52;;;;;;;8.00;7.20;;;11.70;79.00;;;-142.21;100.00;112049.66;5006641;28;20982;-71
2022/11/12 10:07:39;;;;;;;10.43;7.37;;;11.70;78.80;;;-142.21;100.00;112049.66;5009234;28;20442;-73
2022/11/12 10:10:15;;;;;;;8.37;7.57;;;11.70;78.80;;;-142.21;100.00;112049.66;4990868;28;20526;-77
2022/11/12 10:13:14;;;;;;;12.77;7.10;;;11.70;79.10;;;-142.21;100.00;112049.66;4991863;28;20431;-77
2022/11/12 10:19:23;;;;;;;8.47;7.67;;;11.60;79.70;;;-142.21;100.00;112049.66;5011041;28;20546;-77
2022/11/12 10:22:08;;;;;;;9.57;8.07;;;11.60;80.10;;;-142.21;100.00;112049.66;5014394;28;20458;-70
2022/11/12 10:24:38;;;;;;;9.07;8.03;;;11.70;80.30;;;-142.21;100.00;112049.66;5013917;28;20563;-71